sensor_id;sensor_type;location;lat;lon;timestamp;pressure;altitude;pressure_sealevel;temperature
9985;BMP180;16737;50.932;6.780;2023-02-12T00:02:15;102397.00;;;12.40
9985;BMP180;16737;50.932;6.780;2023-02-12T00:04:41;102377.00;;;12.40
9985;BMP180;16737;50.932;6.780;2023-02-12T00:07:08;102392.00;;;12.40
9985;BMP180;16737;50.932;6.780;2023-02-12T00:09:36;102389.00;;;12.40
9985;BMP180;16737;50.932;6.780;2023-02-12T00:12:03;102382.00;;;12.40
9985;BMP180;16737;50.932;6.780;2023-02-12T00:14:30;102395.00;;;12.40
9985;BMP180;16737;50.932;6.780;2023-02-12T00:16:58;102373.00;;;12.40
9985;BMP180;16737;50.932;6.780;2023-02-12T00:19:25;102373.00;;;12.30
9985;BMP180;16737;50.932;6.780;2023-02-12T00:21:52;102376.00;;;12.30
9985;BMP180;16737;50.932;6.780;2023-02-12T00:24:19;102386.00;;;12.30
9985;BMP180;16737;50.932;6.780;2023-02-12T00:26:46;102388.00;;;12.40
9985;BMP180;16737;50.932;6.780;2023-02-12T00:29:15;102388.00;;;12.40
9985;BMP180;16737;50.932;6.780;2023-02-12T00:31:42;102386.00;;;12.40
9985;BMP180;16737;50.932;6.780;2023-02-12T00:34:11;102387.00;;;12.40
9985;BMP180;16737;50.932;6.780;2023-02-12T00:36:38;102397.00;;;12.50
9985;BMP180;16737;50.932;6.780;2023-02-12T00:39:04;102398.00;;;12.50
9985;BMP180;16737;50.932;6.780;2023-02-12T00:41:31;102395.00;;;12.50
9985;BMP180;16737;50.932;6.780;2023-02-12T00:43:58;102399.00;;;12.60
9985;BMP180;16737;50.932;6.780;2023-02-12T00:46:25;102384.00;;;12.60
9985;BMP180;16737;50.932;6.780;2023-02-12T00:48:52;102389.00;;;12.70
9985;BMP180;16737;50.932;6.780;2023-02-12T00:51:21;102377.00;;;12.70
9985;BMP180;16737;50.932;6.780;2023-02-12T00:53:48;102382.00;;;12.70
9985;BMP180;16737;50.932;6.780;2023-02-12T00:56:15;102381.00;;;12.80
9985;BMP180;16737;50.932;6.780;2023-02-12T00:58:42;102378.00;;;12.80
9985;BMP180;16737;50.932;6.780;2023-02-12T01:01:09;102388.00;;;12.80
9985;BMP180;16737;50.932;6.780;2023-02-12T01:03:36;102387.00;;;12.90
9985;BMP180;16737;50.932;6.780;2023-02-12T01:06:03;102374.00;;;12.80
9985;BMP180;16737;50.932;6.780;2023-02-12T01:08:32;102390.00;;;12.90
9985;BMP180;16737;50.932;6.780;2023-02-12T01:11:01;102393.00;;;12.90
9985;BMP180;16737;50.932;6.780;2023-02-12T01:13:30;102391.00;;;12.90
9985;BMP180;16737;50.932;6.780;2023-02-12T01:16:03;102408.00;;;12.90
9985;BMP180;16737;50.932;6.780;2023-02-12T01:18:31;102388.00;;;13.00
9985;BMP180;16737;50.932;6.780;2023-02-12T01:20:58;102392.00;;;13.00
9985;BMP180;16737;50.932;6.780;2023-02-12T01:23:26;102393.00;;;13.00
9985;BMP180;16737;50.932;6.780;2023-02-12T01:25:54;102389.00;;;13.00
9985;BMP180;16737;50.932;6.780;2023-02-12T01:28:24;102394.00;;;12.90
9985;BMP180;16737;50.932;6.780;2023-02-12T01:30:51;102394.00;;;13.00
9985;BMP180;16737;50.932;6.780;2023-02-12T01:33:18;102328.00;;;13.00
9985;BMP180;16737;50.932;6.780;2023-02-12T01:35:45;102393.00;;;13.00
9985;BMP180;16737;50.932;6.780;2023-02-12T01:38:12;102382.00;;;13.00
9985;BMP180;16737;50.932;6.780;2023-02-12T01:40:39;102390.00;;;13.00
9985;BMP180;16737;50.932;6.780;2023-02-12T01:43:11;102396.00;;;13.00
9985;BMP180;16737;50.932;6.780;2023-02-12T01:45:49;102369.00;;;12.90
9985;BMP180;16737;50.932;6.780;2023-02-12T01:48:19;102388.00;;;12.90
9985;BMP180;16737;50.932;6.780;2023-02-12T01:50:49;102384.00;;;12.90
9985;BMP180;16737;50.932;6.780;2023-02-12T01:53:19;102386.00;;;12.90
9985;BMP180;16737;50.932;6.780;2023-02-12T01:55:51;102383.00;;;12.90
9985;BMP180;16737;50.932;6.780;2023-02-12T01:58:20;102385.00;;;12.90
9985;BMP180;16737;50.932;6.780;2023-02-12T02:00:49;102386.00;;;12.90
9985;BMP180;16737;50.932;6.780;2023-02-12T02:03:16;102373.00;;;12.90
9985;BMP180;16737;50.932;6.780;2023-02-12T02:05:51;102361.00;;;12.80
9985;BMP180;16737;50.932;6.780;2023-02-12T02:08:21;102370.00;;;12.80
9985;BMP180;16737;50.932;6.780;2023-02-12T02:10:48;102357.00;;;12.80
9985;BMP180;16737;50.932;6.780;2023-02-12T02:13:15;102360.00;;;12.80
9985;BMP180;16737;50.932;6.780;2023-02-12T02:16:11;102375.00;;;12.80
9985;BMP180;16737;50.932;6.780;2023-02-12T02:18:48;102382.00;;;12.70
9985;BMP180;16737;50.932;6.780;2023-02-12T02:21:50;102368.00;;;12.70
9985;BMP180;16737;50.932;6.780;2023-02-12T02:24:58;102382.00;;;12.70
9985;BMP180;16737;50.932;6.780;2023-02-12T02:27:40;102362.00;;;12.70
9985;BMP180;16737;50.932;6.780;2023-02-12T02:30:31;102367.00;;;12.70
9985;BMP180;16737;50.932;6.780;2023-02-12T02:33:21;102372.00;;;12.70
9985;BMP180;16737;50.932;6.780;2023-02-12T02:35:59;102368.00;;;12.70
9985;BMP180;16737;50.932;6.780;2023-02-12T02:38:40;102361.00;;;12.70
9985;BMP180;16737;50.932;6.780;2023-02-12T02:41:15;102343.00;;;12.70
9985;BMP180;16737;50.932;6.780;2023-02-12T02:43:47;102365.00;;;12.70
9985;BMP180;16737;50.932;6.780;2023-02-12T02:46:22;102370.00;;;12.70
9985;BMP180;16737;50.932;6.780;2023-02-12T02:48:57;102396.00;;;12.70
9985;BMP180;16737;50.932;6.780;2023-02-12T02:51:32;102362.00;;;12.70
9985;BMP180;16737;50.932;6.780;2023-02-12T02:54:09;102331.00;;;12.20
9985;BMP180;16737;50.932;6.780;2023-02-12T02:56:45;102308.00;;;12.70
9985;BMP180;16737;50.932;6.780;2023-02-12T02:59:20;102335.00;;;12.50
9985;BMP180;16737;50.932;6.780;2023-02-12T03:01:57;102375.00;;;12.70
9985;BMP180;16737;50.932;6.780;2023-02-12T03:05:01;102360.00;;;12.70
9985;BMP180;16737;50.932;6.780;2023-02-12T03:07:46;102358.00;;;12.50
9985;BMP180;16737;50.932;6.780;2023-02-12T03:10:19;102326.00;;;12.70
9985;BMP180;16737;50.932;6.780;2023-02-12T03:12:54;102368.00;;;12.60
9985;BMP180;16737;50.932;6.780;2023-02-12T03:15:30;102364.00;;;12.70
9985;BMP180;16737;50.932;6.780;2023-02-12T03:18:04;102366.00;;;12.70
9985;BMP180;16737;50.932;6.780;2023-02-12T03:20:40;102366.00;;;12.70
9985;BMP180;16737;50.932;6.780;2023-02-12T03:23:14;102361.00;;;12.70
9985;BMP180;16737;50.932;6.780;2023-02-12T03:25:51;102351.00;;;12.60
9985;BMP180;16737;50.932;6.780;2023-02-12T03:28:25;102360.00;;;12.60
9985;BMP180;16737;50.932;6.780;2023-02-12T03:31:04;102365.00;;;12.60
9985;BMP180;16737;50.932;6.780;2023-02-12T03:33:45;102354.00;;;12.60
9985;BMP180;16737;50.932;6.780;2023-02-12T03:36:32;102351.00;;;12.50
9985;BMP180;16737;50.932;6.780;2023-02-12T03:39:09;102349.00;;;12.60
9985;BMP180;16737;50.932;6.780;2023-02-12T03:41:43;102342.00;;;12.60
9985;BMP180;16737;50.932;6.780;2023-02-12T03:44:21;102350.00;;;12.60
9985;BMP180;16737;50.932;6.780;2023-02-12T03:47:00;102347.00;;;12.60
9985;BMP180;16737;50.932;6.780;2023-02-12T03:49:36;102351.00;;;12.60
9985;BMP180;16737;50.932;6.780;2023-02-12T03:52:07;102350.00;;;12.60
9985;BMP180;16737;50.932;6.780;2023-02-12T03:54:34;102354.00;;;12.60
9985;BMP180;16737;50.932;6.780;2023-02-12T03:57:08;102354.00;;;12.60
9985;BMP180;16737;50.932;6.780;2023-02-12T03:59:38;102353.00;;;12.60
9985;BMP180;16737;50.932;6.780;2023-02-12T04:02:06;102357.00;;;12.60
9985;BMP180;16737;50.932;6.780;2023-02-12T04:04:35;102341.00;;;12.60
9985;BMP180;16737;50.932;6.780;2023-02-12T04:07:02;102353.00;;;12.60
9985;BMP180;16737;50.932;6.780;2023-02-12T04:09:31;102346.00;;;12.60
9985;BMP180;16737;50.932;6.780;2023-02-12T04:12:19;102371.00;;;12.50
9985;BMP180;16737;50.932;6.780;2023-02-12T04:14:54;102357.00;;;12.60
9985;BMP180;16737;50.932;6.780;2023-02-12T04:20:14;102364.00;;;12.50
9985;BMP180;16737;50.932;6.780;2023-02-12T04:22:55;102375.00;;;12.50
9985;BMP180;16737;50.932;6.780;2023-02-12T04:25:45;102369.00;;;12.50
9985;BMP180;16737;50.932;6.780;2023-02-12T04:28:27;102381.00;;;12.50
9985;BMP180;16737;50.932;6.780;2023-02-12T04:31:05;102364.00;;;12.50
9985;BMP180;16737;50.932;6.780;2023-02-12T04:33:41;102390.00;;;12.40
9985;BMP180;16737;50.932;6.780;2023-02-12T04:36:18;102390.00;;;12.40
9985;BMP180;16737;50.932;6.780;2023-02-12T04:38:53;102373.00;;;12.40
9985;BMP180;16737;50.932;6.780;2023-02-12T04:41:21;102386.00;;;12.40
9985;BMP180;16737;50.932;6.780;2023-02-12T04:43:48;102391.00;;;12.40
9985;BMP180;16737;50.932;6.780;2023-02-12T04:46:15;102354.00;;;12.40
9985;BMP180;16737;50.932;6.780;2023-02-12T04:48:52;102391.00;;;12.40
9985;BMP180;16737;50.932;6.780;2023-02-12T04:51:21;102389.00;;;12.40
9985;BMP180;16737;50.932;6.780;2023-02-12T04:53:49;102395.00;;;12.40
9985;BMP180;16737;50.932;6.780;2023-02-12T04:56:16;102390.00;;;12.40
9985;BMP180;16737;50.932;6.780;2023-02-12T04:58:43;102393.00;;;12.40
9985;BMP180;16737;50.932;6.780;2023-02-12T05:01:10;102388.00;;;12.40
9985;BMP180;16737;50.932;6.780;2023-02-12T05:03:38;102388.00;;;12.50
9985;BMP180;16737;50.932;6.780;2023-02-12T05:06:07;102402.00;;;12.50
9985;BMP180;16737;50.932;6.780;2023-02-12T05:08:36;102397.00;;;12.50
9985;BMP180;16737;50.932;6.780;2023-02-12T05:11:04;102394.00;;;12.50
9985;BMP180;16737;50.932;6.780;2023-02-12T05:13:32;102400.00;;;12.50
9985;BMP180;16737;50.932;6.780;2023-02-12T05:15:59;102388.00;;;12.50
9985;BMP180;16737;50.932;6.780;2023-02-12T05:18:29;102386.00;;;12.50
9985;BMP180;16737;50.932;6.780;2023-02-12T05:20:57;102392.00;;;12.50
9985;BMP180;16737;50.932;6.780;2023-02-12T05:23:26;102395.00;;;12.50
9985;BMP180;16737;50.932;6.780;2023-02-12T05:25:58;102383.00;;;12.50
9985;BMP180;16737;50.932;6.780;2023-02-12T05:28:26;102395.00;;;12.50
9985;BMP180;16737;50.932;6.780;2023-02-12T05:30:53;102363.00;;;12.50
9985;BMP180;16737;50.932;6.780;2023-02-12T05:33:20;102391.00;;;12.50
9985;BMP180;16737;50.932;6.780;2023-02-12T05:35:47;102386.00;;;12.50
9985;BMP180;16737;50.932;6.780;2023-02-12T05:38:14;102405.00;;;12.50
9985;BMP180;16737;50.932;6.780;2023-02-12T05:40:41;102385.00;;;12.40
9985;BMP180;16737;50.932;6.780;2023-02-12T05:43:09;102398.00;;;12.50
9985;BMP180;16737;50.932;6.780;2023-02-12T05:45:36;102402.00;;;12.50
9985;BMP180;16737;50.932;6.780;2023-02-12T05:48:06;102410.00;;;12.50
9985;BMP180;16737;50.932;6.780;2023-02-12T05:50:33;102405.00;;;12.50
9985;BMP180;16737;50.932;6.780;2023-02-12T05:53:00;102405.00;;;12.50
9985;BMP180;16737;50.932;6.780;2023-02-12T05:55:27;102408.00;;;12.50
9985;BMP180;16737;50.932;6.780;2023-02-12T05:57:54;102409.00;;;12.40
9985;BMP180;16737;50.932;6.780;2023-02-12T06:00:23;102387.00;;;12.50
9985;BMP180;16737;50.932;6.780;2023-02-12T06:02:50;102404.00;;;12.40
9985;BMP180;16737;50.932;6.780;2023-02-12T06:05:17;102411.00;;;12.40
9985;BMP180;16737;50.932;6.780;2023-02-12T06:07:44;102426.00;;;12.40
9985;BMP180;16737;50.932;6.780;2023-02-12T06:10:11;102412.00;;;12.40
9985;BMP180;16737;50.932;6.780;2023-02-12T06:12:37;102419.00;;;12.40
9985;BMP180;16737;50.932;6.780;2023-02-12T06:15:05;102410.00;;;12.40
9985;BMP180;16737;50.932;6.780;2023-02-12T06:17:34;102416.00;;;12.40
9985;BMP180;16737;50.932;6.780;2023-02-12T06:20:01;102410.00;;;12.40
9985;BMP180;16737;50.932;6.780;2023-02-12T06:22:28;102404.00;;;12.40
9985;BMP180;16737;50.932;6.780;2023-02-12T06:24:55;102406.00;;;12.40
9985;BMP180;16737;50.932;6.780;2023-02-12T06:27:22;102410.00;;;12.40
9985;BMP180;16737;50.932;6.780;2023-02-12T06:29:49;102375.00;;;12.40
9985;BMP180;16737;50.932;6.780;2023-02-12T06:32:15;102410.00;;;12.40
9985;BMP180;16737;50.932;6.780;2023-02-12T06:34:44;102411.00;;;12.40
9985;BMP180;16737;50.932;6.780;2023-02-12T06:37:11;102419.00;;;12.40
9985;BMP180;16737;50.932;6.780;2023-02-12T06:39:38;102414.00;;;12.40
9985;BMP180;16737;50.932;6.780;2023-02-12T06:42:05;102411.00;;;12.40
9985;BMP180;16737;50.932;6.780;2023-02-12T06:44:32;102410.00;;;12.40
9985;BMP180;16737;50.932;6.780;2023-02-12T06:46:58;102415.00;;;12.40
9985;BMP180;16737;50.932;6.780;2023-02-12T06:49:25;102417.00;;;12.40
9985;BMP180;16737;50.932;6.780;2023-02-12T06:51:54;102427.00;;;12.40
9985;BMP180;16737;50.932;6.780;2023-02-12T06:54:20;102436.00;;;12.40
9985;BMP180;16737;50.932;6.780;2023-02-12T06:56:47;102435.00;;;12.40
9985;BMP180;16737;50.932;6.780;2023-02-12T06:59:16;102421.00;;;12.40
9985;BMP180;16737;50.932;6.780;2023-02-12T07:01:43;102431.00;;;12.40
9985;BMP180;16737;50.932;6.780;2023-02-12T07:04:10;102431.00;;;12.40
9985;BMP180;16737;50.932;6.780;2023-02-12T07:06:37;102416.00;;;12.40
9985;BMP180;16737;50.932;6.780;2023-02-12T07:09:06;102441.00;;;12.40
9985;BMP180;16737;50.932;6.780;2023-02-12T07:11:34;102430.00;;;12.40
9985;BMP180;16737;50.932;6.780;2023-02-12T07:14:02;102410.00;;;12.40
9985;BMP180;16737;50.932;6.780;2023-02-12T07:16:29;102440.00;;;12.40
9985;BMP180;16737;50.932;6.780;2023-02-12T07:18:55;102451.00;;;12.40
9985;BMP180;16737;50.932;6.780;2023-02-12T07:21:22;102445.00;;;12.40
9985;BMP180;16737;50.932;6.780;2023-02-12T07:23:51;102444.00;;;12.40
9985;BMP180;16737;50.932;6.780;2023-02-12T07:26:21;102442.00;;;12.40
9985;BMP180;16737;50.932;6.780;2023-02-12T07:28:48;102447.00;;;12.40
9985;BMP180;16737;50.932;6.780;2023-02-12T07:31:18;102439.00;;;12.40
9985;BMP180;16737;50.932;6.780;2023-02-12T07:33:46;102457.00;;;12.40
9985;BMP180;16737;50.932;6.780;2023-02-12T07:36:16;102453.00;;;12.40
9985;BMP180;16737;50.932;6.780;2023-02-12T07:38:43;102458.00;;;12.50
9985;BMP180;16737;50.932;6.780;2023-02-12T07:41:13;102457.00;;;12.50
9985;BMP180;16737;50.932;6.780;2023-02-12T07:43:44;102462.00;;;12.40
9985;BMP180;16737;50.932;6.780;2023-02-12T07:46:14;102463.00;;;12.50
9985;BMP180;16737;50.932;6.780;2023-02-12T07:48:42;102470.00;;;12.50
9985;BMP180;16737;50.932;6.780;2023-02-12T07:51:12;102470.00;;;12.50
9985;BMP180;16737;50.932;6.780;2023-02-12T07:53:39;102447.00;;;12.50
9985;BMP180;16737;50.932;6.780;2023-02-12T07:56:09;102460.00;;;12.50
9985;BMP180;16737;50.932;6.780;2023-02-12T07:58:36;102466.00;;;12.50
9985;BMP180;16737;50.932;6.780;2023-02-12T08:01:14;102457.00;;;12.50
9985;BMP180;16737;50.932;6.780;2023-02-12T08:03:42;102469.00;;;12.60
9985;BMP180;16737;50.932;6.780;2023-02-12T08:06:12;102470.00;;;12.60
9985;BMP180;16737;50.932;6.780;2023-02-12T08:08:39;102466.00;;;12.60
9985;BMP180;16737;50.932;6.780;2023-02-12T08:11:07;102467.00;;;12.50
9985;BMP180;16737;50.932;6.780;2023-02-12T08:13:35;102478.00;;;12.60
9985;BMP180;16737;50.932;6.780;2023-02-12T08:16:05;102470.00;;;12.60
9985;BMP180;16737;50.932;6.780;2023-02-12T08:18:34;102485.00;;;12.60
9985;BMP180;16737;50.932;6.780;2023-02-12T08:21:03;102476.00;;;12.60
9985;BMP180;16737;50.932;6.780;2023-02-12T08:23:31;102486.00;;;12.60
9985;BMP180;16737;50.932;6.780;2023-02-12T08:26:07;102477.00;;;12.60
9985;BMP180;16737;50.932;6.780;2023-02-12T08:28:35;102482.00;;;12.60
9985;BMP180;16737;50.932;6.780;2023-02-12T08:31:05;102486.00;;;12.60
9985;BMP180;16737;50.932;6.780;2023-02-12T08:33:33;102467.00;;;12.60
9985;BMP180;16737;50.932;6.780;2023-02-12T08:36:03;102490.00;;;12.60
9985;BMP180;16737;50.932;6.780;2023-02-12T08:38:31;102487.00;;;12.70
9985;BMP180;16737;50.932;6.780;2023-02-12T08:41:00;102473.00;;;12.60
9985;BMP180;16737;50.932;6.780;2023-02-12T08:43:28;102486.00;;;12.70
9985;BMP180;16737;50.932;6.780;2023-02-12T08:46:01;102490.00;;;12.70
9985;BMP180;16737;50.932;6.780;2023-02-12T08:48:28;102492.00;;;12.70
9985;BMP180;16737;50.932;6.780;2023-02-12T08:51:04;102489.00;;;12.70
9985;BMP180;16737;50.932;6.780;2023-02-12T08:53:32;102499.00;;;12.70
9985;BMP180;16737;50.932;6.780;2023-02-12T08:55:59;102503.00;;;12.80
9985;BMP180;16737;50.932;6.780;2023-02-12T08:58:28;102483.00;;;12.80
9985;BMP180;16737;50.932;6.780;2023-02-12T09:01:01;102487.00;;;12.80
9985;BMP180;16737;50.932;6.780;2023-02-12T09:03:28;102487.00;;;12.80
9985;BMP180;16737;50.932;6.780;2023-02-12T09:05:57;102496.00;;;12.80
9985;BMP180;16737;50.932;6.780;2023-02-12T09:08:27;102494.00;;;12.90
9985;BMP180;16737;50.932;6.780;2023-02-12T09:10:54;102489.00;;;12.90
9985;BMP180;16737;50.932;6.780;2023-02-12T09:13:21;102472.00;;;12.90
9985;BMP180;16737;50.932;6.780;2023-02-12T09:15:48;102479.00;;;13.00
9985;BMP180;16737;50.932;6.780;2023-02-12T09:18:15;102494.00;;;13.00
9985;BMP180;16737;50.932;6.780;2023-02-12T09:20:44;102497.00;;;13.00
9985;BMP180;16737;50.932;6.780;2023-02-12T09:23:13;102488.00;;;13.10
9985;BMP180;16737;50.932;6.780;2023-02-12T09:25:42;102505.00;;;13.10
9985;BMP180;16737;50.932;6.780;2023-02-12T09:28:10;102508.00;;;13.10
9985;BMP180;16737;50.932;6.780;2023-02-12T09:30:39;102506.00;;;13.10
9985;BMP180;16737;50.932;6.780;2023-02-12T09:33:08;102483.00;;;13.10
9985;BMP180;16737;50.932;6.780;2023-02-12T09:35:36;102507.00;;;13.10
9985;BMP180;16737;50.932;6.780;2023-02-12T09:38:05;102511.00;;;13.10
9985;BMP180;16737;50.932;6.780;2023-02-12T09:40:43;102511.00;;;13.10
9985;BMP180;16737;50.932;6.780;2023-02-12T09:43:18;102504.00;;;13.10
9985;BMP180;16737;50.932;6.780;2023-02-12T09:46:00;102500.00;;;13.20
9985;BMP180;16737;50.932;6.780;2023-02-12T09:48:53;102504.00;;;13.20
9985;BMP180;16737;50.932;6.780;2023-02-12T09:51:24;102506.00;;;13.30
9985;BMP180;16737;50.932;6.780;2023-02-12T09:54:02;102509.00;;;13.30
9985;BMP180;16737;50.932;6.780;2023-02-12T09:56:36;102499.00;;;13.30
9985;BMP180;16737;50.932;6.780;2023-02-12T09:59:06;102517.00;;;13.30
9985;BMP180;16737;50.932;6.780;2023-02-12T10:01:34;102520.00;;;13.40
9985;BMP180;16737;50.932;6.780;2023-02-12T10:04:03;102517.00;;;13.40
9985;BMP180;16737;50.932;6.780;2023-02-12T10:06:40;102519.00;;;13.40
9985;BMP180;16737;50.932;6.780;2023-02-12T10:09:56;102516.00;;;13.40
9985;BMP180;16737;50.932;6.780;2023-02-12T10:12:36;102512.00;;;13.50
9985;BMP180;16737;50.932;6.780;2023-02-12T10:15:17;102514.00;;;13.50
9985;BMP180;16737;50.932;6.780;2023-02-12T10:17:58;102496.00;;;13.60
9985;BMP180;16737;50.932;6.780;2023-02-12T10:21:02;102523.00;;;13.60
9985;BMP180;16737;50.932;6.780;2023-02-12T10:23:57;102518.00;;;13.60
9985;BMP180;16737;50.932;6.780;2023-02-12T10:26:30;102521.00;;;13.70
9985;BMP180;16737;50.932;6.780;2023-02-12T10:29:11;102522.00;;;13.70
9985;BMP180;16737;50.932;6.780;2023-02-12T10:31:43;102523.00;;;13.80
9985;BMP180;16737;50.932;6.780;2023-02-12T10:34:17;102520.00;;;13.80
9985;BMP180;16737;50.932;6.780;2023-02-12T10:36:47;102522.00;;;13.80
9985;BMP180;16737;50.932;6.780;2023-02-12T10:39:21;102525.00;;;13.90
9985;BMP180;16737;50.932;6.780;2023-02-12T10:41:57;102526.00;;;13.90
9985;BMP180;16737;50.932;6.780;2023-02-12T10:44:28;102514.00;;;13.90
9985;BMP180;16737;50.932;6.780;2023-02-12T10:46:55;102501.00;;;13.90
9985;BMP180;16737;50.932;6.780;2023-02-12T10:49:22;102519.00;;;13.90
9985;BMP180;16737;50.932;6.780;2023-02-12T10:52:01;102521.00;;;13.90
9985;BMP180;16737;50.932;6.780;2023-02-12T10:54:37;102503.00;;;14.00
9985;BMP180;16737;50.932;6.780;2023-02-12T10:57:10;102520.00;;;14.00
9985;BMP180;16737;50.932;6.780;2023-02-12T10:59:40;102509.00;;;14.10
9985;BMP180;16737;50.932;6.780;2023-02-12T11:02:24;102485.00;;;14.10
9985;BMP180;16737;50.932;6.780;2023-02-12T11:04:53;102515.00;;;14.20
9985;BMP180;16737;50.932;6.780;2023-02-12T11:07:22;102519.00;;;14.20
9985;BMP180;16737;50.932;6.780;2023-02-12T11:09:52;102514.00;;;14.30
9985;BMP180;16737;50.932;6.780;2023-02-12T11:12:29;102513.00;;;14.30
9985;BMP180;16737;50.932;6.780;2023-02-12T11:15:00;102510.00;;;14.40
9985;BMP180;16737;50.932;6.780;2023-02-12T11:17:35;102511.00;;;14.40
9985;BMP180;16737;50.932;6.780;2023-02-12T11:20:25;102520.00;;;14.40
9985;BMP180;16737;50.932;6.780;2023-02-12T11:22:56;102502.00;;;14.50
9985;BMP180;16737;50.932;6.780;2023-02-12T11:25:27;102502.00;;;14.50
9985;BMP180;16737;50.932;6.780;2023-02-12T11:28:14;102497.00;;;14.50
9985;BMP180;16737;50.932;6.780;2023-02-12T11:30:52;102503.00;;;14.50
9985;BMP180;16737;50.932;6.780;2023-02-12T11:33:26;102494.00;;;14.50
9985;BMP180;16737;50.932;6.780;2023-02-12T11:35:58;102492.00;;;14.50
9985;BMP180;16737;50.932;6.780;2023-02-12T11:38:36;102491.00;;;14.50
9985;BMP180;16737;50.932;6.780;2023-02-12T11:41:27;102481.00;;;14.50
9985;BMP180;16737;50.932;6.780;2023-02-12T11:43:59;102484.00;;;14.60
9985;BMP180;16737;50.932;6.780;2023-02-12T11:46:28;102478.00;;;14.60
9985;BMP180;16737;50.932;6.780;2023-02-12T11:48:56;102484.00;;;14.60
9985;BMP180;16737;50.932;6.780;2023-02-12T11:51:28;102477.00;;;14.60
9985;BMP180;16737;50.932;6.780;2023-02-12T11:53:59;102479.00;;;14.60
9985;BMP180;16737;50.932;6.780;2023-02-12T11:56:41;102478.00;;;14.60
9985;BMP180;16737;50.932;6.780;2023-02-12T11:59:23;102461.00;;;14.70
9985;BMP180;16737;50.932;6.780;2023-02-12T12:01:55;102466.00;;;14.70
9985;BMP180;16737;50.932;6.780;2023-02-12T12:04:26;102476.00;;;14.70
9985;BMP180;16737;50.932;6.780;2023-02-12T12:07:02;102464.00;;;14.80
9985;BMP180;16737;50.932;6.780;2023-02-12T12:09:38;102472.00;;;14.80
9985;BMP180;16737;50.932;6.780;2023-02-12T12:12:12;102470.00;;;14.80
9985;BMP180;16737;50.932;6.780;2023-02-12T12:14:46;102457.00;;;14.90
9985;BMP180;16737;50.932;6.780;2023-02-12T12:17:43;102457.00;;;14.90
9985;BMP180;16737;50.932;6.780;2023-02-12T12:20:35;102455.00;;;14.90
9985;BMP180;16737;50.932;6.780;2023-02-12T12:23:14;102450.00;;;14.90
9985;BMP180;16737;50.932;6.780;2023-02-12T12:25:48;102452.00;;;14.90
9985;BMP180;16737;50.932;6.780;2023-02-12T12:28:32;102449.00;;;14.90
9985;BMP180;16737;50.932;6.780;2023-02-12T12:31:07;102444.00;;;15.00
9985;BMP180;16737;50.932;6.780;2023-02-12T12:33:42;102438.00;;;15.00
9985;BMP180;16737;50.932;6.780;2023-02-12T12:36:58;102437.00;;;15.00
9985;BMP180;16737;50.932;6.780;2023-02-12T12:39:35;102433.00;;;15.10
9985;BMP180;16737;50.932;6.780;2023-02-12T12:45:57;102413.00;;;15.00
9985;BMP180;16737;50.932;6.780;2023-02-12T12:48:47;102418.00;;;15.00
9985;BMP180;16737;50.932;6.780;2023-02-12T12:51:35;102423.00;;;15.00
9985;BMP180;16737;50.932;6.780;2023-02-12T12:54:25;102415.00;;;15.00
9985;BMP180;16737;50.932;6.780;2023-02-12T12:57:06;102408.00;;;15.00
9985;BMP180;16737;50.932;6.780;2023-02-12T13:00:06;102410.00;;;15.10
9985;BMP180;16737;50.932;6.780;2023-02-12T13:03:19;102407.00;;;15.10
9985;BMP180;16737;50.932;6.780;2023-02-12T13:06:38;102407.00;;;15.10
9985;BMP180;16737;50.932;6.780;2023-02-12T13:09:28;102401.00;;;15.20
9985;BMP180;16737;50.932;6.780;2023-02-12T13:12:19;102393.00;;;15.20
9985;BMP180;16737;50.932;6.780;2023-02-12T13:14:58;102403.00;;;15.20
9985;BMP180;16737;50.932;6.780;2023-02-12T13:17:35;102383.00;;;15.30
9985;BMP180;16737;50.932;6.780;2023-02-12T13:20:12;102397.00;;;15.30
9985;BMP180;16737;50.932;6.780;2023-02-12T13:22:55;102398.00;;;15.30
9985;BMP180;16737;50.932;6.780;2023-02-12T13:25:29;102389.00;;;15.30
9985;BMP180;16737;50.932;6.780;2023-02-12T13:27:59;102386.00;;;15.30
9985;BMP180;16737;50.932;6.780;2023-02-12T13:30:32;102396.00;;;15.40
9985;BMP180;16737;50.932;6.780;2023-02-12T13:33:09;102382.00;;;15.40
9985;BMP180;16737;50.932;6.780;2023-02-12T13:35:41;102377.00;;;15.40
9985;BMP180;16737;50.932;6.780;2023-02-12T13:38:18;102384.00;;;15.40
9985;BMP180;16737;50.932;6.780;2023-02-12T13:40:47;102367.00;;;15.50
9985;BMP180;16737;50.932;6.780;2023-02-12T13:43:32;102330.00;;;15.50
9985;BMP180;16737;50.932;6.780;2023-02-12T13:46:10;102375.00;;;15.50
9985;BMP180;16737;50.932;6.780;2023-02-12T13:48:53;102381.00;;;15.50
9985;BMP180;16737;50.932;6.780;2023-02-12T13:51:37;102382.00;;;15.50
9985;BMP180;16737;50.932;6.780;2023-02-12T13:54:24;102372.00;;;15.50
9985;BMP180;16737;50.932;6.780;2023-02-12T13:56:56;102369.00;;;15.50
9985;BMP180;16737;50.932;6.780;2023-02-12T13:59:47;102362.00;;;15.50
9985;BMP180;16737;50.932;6.780;2023-02-12T14:02:41;102370.00;;;15.50
9985;BMP180;16737;50.932;6.780;2023-02-12T14:05:28;102367.00;;;15.50
9985;BMP180;16737;50.932;6.780;2023-02-12T14:07:59;102355.00;;;15.50
9985;BMP180;16737;50.932;6.780;2023-02-12T14:10:32;102361.00;;;15.50
9985;BMP180;16737;50.932;6.780;2023-02-12T14:13:21;102355.00;;;15.50
9985;BMP180;16737;50.932;6.780;2023-02-12T14:15:52;102360.00;;;15.50
9985;BMP180;16737;50.932;6.780;2023-02-12T14:18:37;102348.00;;;15.40
9985;BMP180;16737;50.932;6.780;2023-02-12T14:21:39;102363.00;;;15.40
9985;BMP180;16737;50.932;6.780;2023-02-12T14:24:48;102359.00;;;15.40
9985;BMP180;16737;50.932;6.780;2023-02-12T14:27:40;102371.00;;;15.40
9985;BMP180;16737;50.932;6.780;2023-02-12T14:30:29;102363.00;;;15.40
9985;BMP180;16737;50.932;6.780;2023-02-12T14:33:19;102352.00;;;15.40
9985;BMP180;16737;50.932;6.780;2023-02-12T14:36:11;102363.00;;;15.50
9985;BMP180;16737;50.932;6.780;2023-02-12T14:39:03;102367.00;;;15.40
9985;BMP180;16737;50.932;6.780;2023-02-12T14:41:35;102349.00;;;15.50
9985;BMP180;16737;50.932;6.780;2023-02-12T14:44:46;102367.00;;;15.40
9985;BMP180;16737;50.932;6.780;2023-02-12T14:47:49;102365.00;;;15.40
9985;BMP180;16737;50.932;6.780;2023-02-12T14:50:28;102356.00;;;15.40
9985;BMP180;16737;50.932;6.780;2023-02-12T14:53:06;102360.00;;;15.40
9985;BMP180;16737;50.932;6.780;2023-02-12T14:55:34;102364.00;;;15.40